sensor_id;sensor_type;location;lat;lon;timestamp;pressure;altitude;pressure_sealevel;temperature;humidity
22647;BME280;11490;42.726;23.268;2023-07-22T00:00:08;95153.63;;;24.99;67.74
22647;BME280;11490;42.726;23.268;2023-07-22T00:02:40;95163.09;;;25.22;66.92
22647;BME280;11490;42.726;23.268;2023-07-22T00:05:06;95168.31;;;25.36;67.04
22647;BME280;11490;42.726;23.268;2023-07-22T00:07:31;95167.84;;;25.34;66.69
22647;BME280;11490;42.726;23.268;2023-07-22T00:09:57;95171.78;;;25.24;66.96
22647;BME280;11490;42.726;23.268;2023-07-22T00:12:22;95149.63;;;25.17;65.94
22647;BME280;11490;42.726;23.268;2023-07-22T00:14:51;95168.56;;;25.22;65.98
22647;BME280;11490;42.726;23.268;2023-07-22T00:17:16;95176.00;;;25.13;66.93
22647;BME280;11490;42.726;23.268;2023-07-22T00:19:42;95171.09;;;25.27;66.57
22647;BME280;11490;42.726;23.268;2023-07-22T00:22:07;95179.28;;;25.27;66.71
22647;BME280;11490;42.726;23.268;2023-07-22T00:24:33;95174.13;;;25.05;67.32
22647;BME280;11490;42.726;23.268;2023-07-22T00:26:58;95177.41;;;25.19;67.42
22647;BME280;11490;42.726;23.268;2023-07-22T00:29:24;95138.09;;;24.90;67.77
22647;BME280;11490;42.726;23.268;2023-07-22T00:31:49;95165.66;;;24.98;68.41
22647;BME280;11490;42.726;23.268;2023-07-22T00:34:14;95169.69;;;24.53;70.27
22647;BME280;11490;42.726;23.268;2023-07-22T00:36:40;95147.50;;;24.64;69.19
22647;BME280;11490;42.726;23.268;2023-07-22T00:39:05;95164.72;;;24.47;69.72
22647;BME280;11490;42.726;23.268;2023-07-22T00:41:31;95167.59;;;24.59;69.10
22647;BME280;11490;42.726;23.268;2023-07-22T00:43:57;95174.22;;;24.79;69.10
22647;BME280;11490;42.726;23.268;2023-07-22T00:46:22;95180.63;;;24.91;68.33
22647;BME280;11490;42.726;23.268;2023-07-22T00:48:48;95158.16;;;24.48;69.15
22647;BME280;11490;42.726;23.268;2023-07-22T00:51:15;95155.16;;;24.70;69.22
22647;BME280;11490;42.726;23.268;2023-07-22T00:53:40;95197.81;;;24.92;68.70
22647;BME280;11490;42.726;23.268;2023-07-22T00:56:06;95191.03;;;24.98;68.74
22647;BME280;11490;42.726;23.268;2023-07-22T00:58:32;95188.41;;;25.02;68.24
22647;BME280;11490;42.726;23.268;2023-07-22T01:00:58;95183.78;;;24.55;70.06
22647;BME280;11490;42.726;23.268;2023-07-22T01:03:24;95178.59;;;24.25;71.75
22647;BME280;11490;42.726;23.268;2023-07-22T01:05:50;95162.13;;;24.59;70.17
22647;BME280;11490;42.726;23.268;2023-07-22T01:08:17;95167.03;;;24.36;71.10
22647;BME280;11490;42.726;23.268;2023-07-22T01:10:42;95165.47;;;24.65;70.04
22647;BME280;11490;42.726;23.268;2023-07-22T01:13:08;95163.50;;;24.74;69.98
22647;BME280;11490;42.726;23.268;2023-07-22T01:15:33;95168.81;;;24.70;70.95
22647;BME280;11490;42.726;23.268;2023-07-22T01:17:59;95172.69;;;24.69;71.25
22647;BME280;11490;42.726;23.268;2023-07-22T01:20:28;95170.41;;;24.71;71.46
22647;BME280;11490;42.726;23.268;2023-07-22T01:22:54;95175.50;;;24.81;71.56
22647;BME280;11490;42.726;23.268;2023-07-22T01:25:20;95162.41;;;24.66;71.55
22647;BME280;11490;42.726;23.268;2023-07-22T01:27:50;95160.22;;;24.51;71.08
22647;BME280;11490;42.726;23.268;2023-07-22T01:30:16;95145.31;;;24.48;71.45
22647;BME280;11490;42.726;23.268;2023-07-22T01:32:42;95161.91;;;24.35;72.75
22647;BME280;11490;42.726;23.268;2023-07-22T01:35:08;95158.34;;;24.43;71.54
22647;BME280;11490;42.726;23.268;2023-07-22T01:37:34;95146.13;;;24.49;71.58
22647;BME280;11490;42.726;23.268;2023-07-22T01:40:00;95162.00;;;24.47;72.07
22647;BME280;11490;42.726;23.268;2023-07-22T01:42:25;95154.81;;;24.42;72.55
22647;BME280;11490;42.726;23.268;2023-07-22T01:44:50;95151.56;;;24.49;71.77
22647;BME280;11490;42.726;23.268;2023-07-22T01:47:16;95138.00;;;24.32;71.94
22647;BME280;11490;42.726;23.268;2023-07-22T01:49:41;95137.16;;;24.40;72.46
22647;BME280;11490;42.726;23.268;2023-07-22T01:52:07;95147.13;;;24.36;72.68
22647;BME280;11490;42.726;23.268;2023-07-22T01:54:33;95141.72;;;24.27;73.02
22647;BME280;11490;42.726;23.268;2023-07-22T01:56:58;95129.69;;;24.28;72.59
22647;BME280;11490;42.726;23.268;2023-07-22T01:59:24;95131.13;;;24.26;72.44
22647;BME280;11490;42.726;23.268;2023-07-22T02:01:50;95140.44;;;24.25;72.65
22647;BME280;11490;42.726;23.268;2023-07-22T02:04:16;95138.19;;;24.18;72.69
22647;BME280;11490;42.726;23.268;2023-07-22T02:06:42;95156.94;;;24.20;73.50
22647;BME280;11490;42.726;23.268;2023-07-22T02:09:07;95140.47;;;24.07;72.97
22647;BME280;11490;42.726;23.268;2023-07-22T02:11:38;95134.53;;;24.05;71.81
22647;BME280;11490;42.726;23.268;2023-07-22T02:14:04;95145.56;;;24.09;72.08
22647;BME280;11490;42.726;23.268;2023-07-22T02:16:35;95143.00;;;24.12;71.97
22647;BME280;11490;42.726;23.268;2023-07-22T02:19:04;95147.19;;;24.01;73.02
22647;BME280;11490;42.726;23.268;2023-07-22T02:21:30;95148.16;;;24.05;72.91
22647;BME280;11490;42.726;23.268;2023-07-22T02:23:55;95151.22;;;23.95;72.28
22647;BME280;11490;42.726;23.268;2023-07-22T02:26:20;95141.00;;;23.84;72.80
22647;BME280;11490;42.726;23.268;2023-07-22T02:28:46;95158.09;;;24.01;72.58
22647;BME280;11490;42.726;23.268;2023-07-22T02:31:12;95149.28;;;23.96;73.41
22647;BME280;11490;42.726;23.268;2023-07-22T02:33:37;95165.31;;;24.06;72.75
22647;BME280;11490;42.726;23.268;2023-07-22T02:36:03;95161.78;;;23.97;72.74
22647;BME280;11490;42.726;23.268;2023-07-22T02:38:28;95142.44;;;23.81;72.92
22647;BME280;11490;42.726;23.268;2023-07-22T02:40:54;95154.25;;;23.16;75.60
22647;BME280;11490;42.726;23.268;2023-07-22T02:43:19;95159.91;;;23.54;75.22
22647;BME280;11490;42.726;23.268;2023-07-22T02:45:45;95157.03;;;23.59;74.75
22647;BME280;11490;42.726;23.268;2023-07-22T02:48:10;95157.66;;;23.73;74.65
22647;BME280;11490;42.726;23.268;2023-07-22T02:50:36;95156.53;;;23.66;75.08
22647;BME280;11490;42.726;23.268;2023-07-22T02:53:02;95162.47;;;23.76;74.38
22647;BME280;11490;42.726;23.268;2023-07-22T02:55:27;95175.59;;;23.74;75.05
22647;BME280;11490;42.726;23.268;2023-07-22T02:57:53;95173.50;;;23.80;74.80
22647;BME280;11490;42.726;23.268;2023-07-22T03:00:19;95173.19;;;23.73;75.11
22647;BME280;11490;42.726;23.268;2023-07-22T03:02:52;95172.72;;;23.71;75.58
22647;BME280;11490;42.726;23.268;2023-07-22T03:05:18;95166.81;;;23.69;75.07
22647;BME280;11490;42.726;23.268;2023-07-22T03:07:44;95176.25;;;23.63;75.13
22647;BME280;11490;42.726;23.268;2023-07-22T03:10:09;95173.03;;;23.69;75.08
22647;BME280;11490;42.726;23.268;2023-07-22T03:12:36;95144.38;;;23.55;75.11
22647;BME280;11490;42.726;23.268;2023-07-22T03:15:02;95164.88;;;23.61;74.86
22647;BME280;11490;42.726;23.268;2023-07-22T03:17:29;95169.22;;;23.53;76.22
22647;BME280;11490;42.726;23.268;2023-07-22T03:19:55;95167.75;;;23.56;76.10
22647;BME280;11490;42.726;23.268;2023-07-22T03:22:20;95168.88;;;23.55;75.46
22647;BME280;11490;42.726;23.268;2023-07-22T03:24:45;95169.53;;;23.60;75.34
22647;BME280;11490;42.726;23.268;2023-07-22T03:27:12;95176.41;;;23.58;75.39
22647;BME280;11490;42.726;23.268;2023-07-22T03:29:39;95185.38;;;23.50;76.56
22647;BME280;11490;42.726;23.268;2023-07-22T03:32:05;95180.09;;;23.53;76.74
22647;BME280;11490;42.726;23.268;2023-07-22T03:34:31;95181.53;;;23.51;76.48
22647;BME280;11490;42.726;23.268;2023-07-22T03:36:57;95202.34;;;23.64;76.28
22647;BME280;11490;42.726;23.268;2023-07-22T03:39:23;95199.16;;;23.70;75.58
22647;BME280;11490;42.726;23.268;2023-07-22T03:41:49;95193.06;;;23.65;75.52
22647;BME280;11490;42.726;23.268;2023-07-22T03:44:14;95191.41;;;23.29;76.36
22647;BME280;11490;42.726;23.268;2023-07-22T03:46:40;95204.59;;;23.53;76.73
22647;BME280;11490;42.726;23.268;2023-07-22T03:49:05;95205.72;;;23.52;76.34
22647;BME280;11490;42.726;23.268;2023-07-22T03:51:31;95203.16;;;23.56;76.74
22647;BME280;11490;42.726;23.268;2023-07-22T03:53:57;95198.50;;;23.65;76.40
22647;BME280;11490;42.726;23.268;2023-07-22T03:56:22;95205.41;;;23.54;76.70
22647;BME280;11490;42.726;23.268;2023-07-22T03:58:49;95221.28;;;23.69;75.79
22647;BME280;11490;42.726;23.268;2023-07-22T04:01:15;95214.22;;;23.68;76.36
22647;BME280;11490;42.726;23.268;2023-07-22T04:03:40;95225.13;;;23.68;76.56
22647;BME280;11490;42.726;23.268;2023-07-22T04:06:06;95227.66;;;23.56;76.86
22647;BME280;11490;42.726;23.268;2023-07-22T04:08:31;95217.09;;;23.63;77.15
22647;BME280;11490;42.726;23.268;2023-07-22T04:10:57;95202.84;;;23.57;77.31
22647;BME280;11490;42.726;23.268;2023-07-22T04:13:23;95219.81;;;23.71;77.54
22647;BME280;11490;42.726;23.268;2023-07-22T04:15:50;95198.50;;;23.65;77.09
22647;BME280;11490;42.726;23.268;2023-07-22T04:18:16;95196.91;;;23.64;77.00
22647;BME280;11490;42.726;23.268;2023-07-22T04:20:42;95211.16;;;23.69;78.01
22647;BME280;11490;42.726;23.268;2023-07-22T04:23:07;95204.28;;;23.63;78.72
22647;BME280;11490;42.726;23.268;2023-07-22T04:25:33;95197.09;;;23.67;78.89
22647;BME280;11490;42.726;23.268;2023-07-22T04:27:59;95216.59;;;23.78;78.26
22647;BME280;11490;42.726;23.268;2023-07-22T04:30:24;95223.19;;;23.77;78.00
22647;BME280;11490;42.726;23.268;2023-07-22T04:32:50;95226.56;;;23.83;78.30
22647;BME280;11490;42.726;23.268;2023-07-22T04:35:16;95235.38;;;23.88;77.96
22647;BME280;11490;42.726;23.268;2023-07-22T04:37:44;95234.06;;;23.94;78.78
22647;BME280;11490;42.726;23.268;2023-07-22T04:40:13;95211.47;;;23.94;78.57
22647;BME280;11490;42.726;23.268;2023-07-22T04:42:43;95229.28;;;23.91;78.55
22647;BME280;11490;42.726;23.268;2023-07-22T04:45:10;95222.22;;;23.90;77.17
22647;BME280;11490;42.726;23.268;2023-07-22T04:47:36;95237.75;;;24.15;76.89
22647;BME280;11490;42.726;23.268;2023-07-22T04:50:03;95222.84;;;24.04;77.93
22647;BME280;11490;42.726;23.268;2023-07-22T04:52:29;95222.34;;;24.20;77.50
22647;BME280;11490;42.726;23.268;2023-07-22T04:54:55;95228.00;;;24.23;77.43
22647;BME280;11490;42.726;23.268;2023-07-22T04:57:21;95251.38;;;24.33;77.26
22647;BME280;11490;42.726;23.268;2023-07-22T04:59:47;95238.72;;;24.28;77.82
22647;BME280;11490;42.726;23.268;2023-07-22T05:02:12;95249.13;;;24.35;77.06
22647;BME280;11490;42.726;23.268;2023-07-22T05:04:38;95254.25;;;24.45;77.21
22647;BME280;11490;42.726;23.268;2023-07-22T05:07:03;95255.69;;;24.51;76.65
22647;BME280;11490;42.726;23.268;2023-07-22T05:09:29;95241.75;;;24.44;76.55
22647;BME280;11490;42.726;23.268;2023-07-22T05:11:54;95241.25;;;24.50;76.32
22647;BME280;11490;42.726;23.268;2023-07-22T05:14:20;95252.25;;;24.71;77.00
22647;BME280;11490;42.726;23.268;2023-07-22T05:16:45;95242.94;;;24.72;76.69
22647;BME280;11490;42.726;23.268;2023-07-22T05:19:11;95253.78;;;24.89;76.71
22647;BME280;11490;42.726;23.268;2023-07-22T05:21:36;95239.06;;;24.90;75.72
22647;BME280;11490;42.726;23.268;2023-07-22T05:24:02;95251.78;;;25.16;76.40
22647;BME280;11490;42.726;23.268;2023-07-22T05:26:27;95253.69;;;25.24;75.41
22647;BME280;11490;42.726;23.268;2023-07-22T05:28:53;95256.94;;;25.09;75.48
22647;BME280;11490;42.726;23.268;2023-07-22T05:31:19;95239.28;;;25.15;75.95
22647;BME280;11490;42.726;23.268;2023-07-22T05:33:45;95233.09;;;25.26;75.70
22647;BME280;11490;42.726;23.268;2023-07-22T05:36:10;95231.91;;;25.36;73.96
22647;BME280;11490;42.726;23.268;2023-07-22T05:38:35;95254.00;;;25.52;74.45
22647;BME280;11490;42.726;23.268;2023-07-22T05:41:01;95245.19;;;25.46;74.27
22647;BME280;11490;42.726;23.268;2023-07-22T05:43:26;95254.38;;;25.42;74.48
22647;BME280;11490;42.726;23.268;2023-07-22T05:45:52;95243.50;;;25.33;74.91
22647;BME280;11490;42.726;23.268;2023-07-22T05:48:17;95248.84;;;25.50;74.95
22647;BME280;11490;42.726;23.268;2023-07-22T05:50:43;95246.56;;;25.61;75.33
22647;BME280;11490;42.726;23.268;2023-07-22T05:53:08;95250.97;;;25.74;74.17
22647;BME280;11490;42.726;23.268;2023-07-22T05:55:33;95246.56;;;25.82;74.58
22647;BME280;11490;42.726;23.268;2023-07-22T05:57:59;95252.50;;;25.84;74.17
22647;BME280;11490;42.726;23.268;2023-07-22T06:00:30;95257.91;;;25.92;74.04
22647;BME280;11490;42.726;23.268;2023-07-22T06:02:56;95248.56;;;25.73;73.20
22647;BME280;11490;42.726;23.268;2023-07-22T06:05:21;95264.72;;;26.07;73.78
22647;BME280;11490;42.726;23.268;2023-07-22T06:07:46;95266.03;;;26.22;73.65
22647;BME280;11490;42.726;23.268;2023-07-22T06:10:12;95280.81;;;26.41;73.89
22647;BME280;11490;42.726;23.268;2023-07-22T06:12:37;95278.97;;;26.33;72.62
22647;BME280;11490;42.726;23.268;2023-07-22T06:15:04;95277.44;;;26.44;72.48
22647;BME280;11490;42.726;23.268;2023-07-22T06:17:29;95269.22;;;26.44;71.08
22647;BME280;11490;42.726;23.268;2023-07-22T06:19:55;95280.56;;;26.55;71.87
22647;BME280;11490;42.726;23.268;2023-07-22T06:22:20;95292.44;;;26.71;71.52
22647;BME280;11490;42.726;23.268;2023-07-22T06:24:45;95296.66;;;26.69;73.19
22647;BME280;11490;42.726;23.268;2023-07-22T06:27:11;95294.41;;;26.71;71.65
22647;BME280;11490;42.726;23.268;2023-07-22T06:29:36;95273.59;;;26.91;71.24
22647;BME280;11490;42.726;23.268;2023-07-22T06:32:02;95278.88;;;26.75;70.15
22647;BME280;11490;42.726;23.268;2023-07-22T06:34:27;95300.13;;;26.78;70.20
22647;BME280;11490;42.726;23.268;2023-07-22T06:36:53;95304.09;;;27.13;70.42
22647;BME280;11490;42.726;23.268;2023-07-22T06:39:18;95293.56;;;27.03;70.25
22647;BME280;11490;42.726;23.268;2023-07-22T06:41:43;95298.59;;;26.35;72.50
22647;BME280;11490;42.726;23.268;2023-07-22T06:44:09;95290.47;;;26.60;71.99
22647;BME280;11490;42.726;23.268;2023-07-22T06:46:35;95302.09;;;26.57;70.99
22647;BME280;11490;42.726;23.268;2023-07-22T06:49:00;95293.84;;;26.77;71.30
22647;BME280;11490;42.726;23.268;2023-07-22T06:51:26;95280.91;;;27.11;71.36
22647;BME280;11490;42.726;23.268;2023-07-22T06:53:51;95285.75;;;27.38;68.67
22647;BME280;11490;42.726;23.268;2023-07-22T06:56:16;95300.22;;;27.51;70.84
22647;BME280;11490;42.726;23.268;2023-07-22T06:58:42;95288.38;;;27.71;70.18
22647;BME280;11490;42.726;23.268;2023-07-22T07:01:07;95285.41;;;27.76;68.98
22647;BME280;11490;42.726;23.268;2023-07-22T07:03:33;95270.56;;;27.77;68.59
22647;BME280;11490;42.726;23.268;2023-07-22T07:05:58;95271.91;;;27.83;68.39
22647;BME280;11490;42.726;23.268;2023-07-22T07:08:24;95288.09;;;27.88;68.25
22647;BME280;11490;42.726;23.268;2023-07-22T07:10:52;95275.06;;;27.98;67.49
22647;BME280;11490;42.726;23.268;2023-07-22T07:13:18;95270.50;;;28.02;67.72
22647;BME280;11490;42.726;23.268;2023-07-22T07:15:47;95266.47;;;28.23;67.23
22647;BME280;11490;42.726;23.268;2023-07-22T07:18:16;95268.38;;;28.11;67.15
22647;BME280;11490;42.726;23.268;2023-07-22T07:20:42;95270.13;;;28.43;66.96
22647;BME280;11490;42.726;23.268;2023-07-22T07:23:07;95277.41;;;28.51;65.58
22647;BME280;11490;42.726;23.268;2023-07-22T07:25:33;95288.53;;;28.43;66.33
22647;BME280;11490;42.726;23.268;2023-07-22T07:27:58;95273.44;;;28.77;66.03
22647;BME280;11490;42.726;23.268;2023-07-22T07:30:24;95264.84;;;28.50;65.41
22647;BME280;11490;42.726;23.268;2023-07-22T07:32:51;95277.53;;;28.83;66.28
22647;BME280;11490;42.726;23.268;2023-07-22T07:35:17;95250.25;;;28.90;66.71
22647;BME280;11490;42.726;23.268;2023-07-22T07:37:42;95252.38;;;29.12;63.69
22647;BME280;11490;42.726;23.268;2023-07-22T07:40:08;95262.22;;;29.29;64.31
22647;BME280;11490;42.726;23.268;2023-07-22T07:42:36;95252.94;;;29.02;63.87
22647;BME280;11490;42.726;23.268;2023-07-22T07:45:01;95242.91;;;29.25;63.83
22647;BME280;11490;42.726;23.268;2023-07-22T07:47:27;95246.81;;;29.56;63.44
22647;BME280;11490;42.726;23.268;2023-07-22T07:49:52;95264.78;;;29.69;62.55
22647;BME280;11490;42.726;23.268;2023-07-22T07:52:17;95262.94;;;29.92;62.73
22647;BME280;11490;42.726;23.268;2023-07-22T07:54:45;95260.88;;;29.70;61.79
22647;BME280;11490;42.726;23.268;2023-07-22T07:57:11;95264.28;;;29.98;62.16
22647;BME280;11490;42.726;23.268;2023-07-22T07:59:36;95232.75;;;29.61;61.01
22647;BME280;11490;42.726;23.268;2023-07-22T08:02:01;95253.56;;;29.93;61.03
22647;BME280;11490;42.726;23.268;2023-07-22T08:04:29;95256.75;;;30.14;61.19
22647;BME280;11490;42.726;23.268;2023-07-22T08:06:54;95247.66;;;30.10;59.71
22647;BME280;11490;42.726;23.268;2023-07-22T08:09:20;95256.84;;;29.83;59.53
22647;BME280;11490;42.726;23.268;2023-07-22T08:11:45;95248.66;;;30.21;60.19
22647;BME280;11490;42.726;23.268;2023-07-22T08:14:11;95267.34;;;30.51;59.14
22647;BME280;11490;42.726;23.268;2023-07-22T08:16:36;95267.50;;;30.19;59.70
22647;BME280;11490;42.726;23.268;2023-07-22T08:19:02;95271.44;;;30.57;61.14
22647;BME280;11490;42.726;23.268;2023-07-22T08:21:27;95265.97;;;30.60;58.47
22647;BME280;11490;42.726;23.268;2023-07-22T08:23:52;95246.34;;;30.62;59.75
22647;BME280;11490;42.726;23.268;2023-07-22T08:26:18;95248.91;;;30.74;58.01
22647;BME280;11490;42.726;23.268;2023-07-22T08:28:46;95234.63;;;30.27;58.20
22647;BME280;11490;42.726;23.268;2023-07-22T08:31:12;95220.72;;;30.81;57.56
22647;BME280;11490;42.726;23.268;2023-07-22T08:33:37;95228.44;;;30.94;57.78
22647;BME280;11490;42.726;23.268;2023-07-22T08:36:03;95234.19;;;31.31;59.16
22647;BME280;11490;42.726;23.268;2023-07-22T08:38:28;95221.09;;;31.25;56.66
22647;BME280;11490;42.726;23.268;2023-07-22T08:40:54;95227.47;;;31.29;56.11
22647;BME280;11490;42.726;23.268;2023-07-22T08:43:21;95218.72;;;31.72;56.69
22647;BME280;11490;42.726;23.268;2023-07-22T08:45:47;95223.88;;;31.25;55.54
22647;BME280;11490;42.726;23.268;2023-07-22T08:48:15;95193.22;;;30.84;55.81
22647;BME280;11490;42.726;23.268;2023-07-22T08:50:54;95177.56;;;30.88;56.73
22647;BME280;11490;42.726;23.268;2023-07-22T08:53:20;95219.25;;;31.32;55.93
22647;BME280;11490;42.726;23.268;2023-07-22T08:55:47;95184.75;;;31.42;54.83
22647;BME280;11490;42.726;23.268;2023-07-22T08:58:16;95201.47;;;32.09;55.43
22647;BME280;11490;42.726;23.268;2023-07-22T09:00:42;95207.59;;;31.95;54.31
22647;BME280;11490;42.726;23.268;2023-07-22T09:03:09;95191.53;;;32.34;55.14
22647;BME280;11490;42.726;23.268;2023-07-22T09:05:36;95202.25;;;32.73;54.23
22647;BME280;11490;42.726;23.268;2023-07-22T09:08:03;95208.50;;;32.70;52.44
22647;BME280;11490;42.726;23.268;2023-07-22T09:10:30;95198.44;;;32.88;51.80
22647;BME280;11490;42.726;23.268;2023-07-22T09:12:56;95196.47;;;32.89;51.52
22647;BME280;11490;42.726;23.268;2023-07-22T09:15:22;95184.31;;;32.97;51.70
22647;BME280;11490;42.726;23.268;2023-07-22T09:17:48;95190.97;;;33.40;49.02
22647;BME280;11490;42.726;23.268;2023-07-22T09:20:17;95169.66;;;33.37;49.85
22647;BME280;11490;42.726;23.268;2023-07-22T09:22:46;95168.22;;;33.64;49.38
22647;BME280;11490;42.726;23.268;2023-07-22T09:25:17;95194.59;;;34.13;50.04
22647;BME280;11490;42.726;23.268;2023-07-22T09:27:43;95189.06;;;34.13;48.54
22647;BME280;11490;42.726;23.268;2023-07-22T09:30:27;95189.19;;;34.41;48.61
22647;BME280;11490;42.726;23.268;2023-07-22T09:32:54;95171.78;;;34.37;47.79
22647;BME280;11490;42.726;23.268;2023-07-22T09:35:21;95187.59;;;34.33;46.54
22647;BME280;11490;42.726;23.268;2023-07-22T09:37:47;95196.34;;;34.49;47.07
22647;BME280;11490;42.726;23.268;2023-07-22T09:40:20;95157.78;;;34.05;47.17
22647;BME280;11490;42.726;23.268;2023-07-22T09:42:54;95167.06;;;34.62;48.41
22647;BME280;11490;42.726;23.268;2023-07-22T09:45:22;95161.63;;;34.77;47.12
22647;BME280;11490;42.726;23.268;2023-07-22T09:47:49;95144.84;;;34.27;45.01
22647;BME280;11490;42.726;23.268;2023-07-22T09:50:19;95142.53;;;34.50;47.56
22647;BME280;11490;42.726;23.268;2023-07-22T09:52:51;95167.97;;;34.98;43.22
22647;BME280;11490;42.726;23.268;2023-07-22T09:55:27;95152.13;;;35.24;42.29
22647;BME280;11490;42.726;23.268;2023-07-22T09:57:58;95148.94;;;35.00;44.21
22647;BME280;11490;42.726;23.268;2023-07-22T10:00:27;95160.03;;;35.32;40.47
22647;BME280;11490;42.726;23.268;2023-07-22T10:02:56;95160.41;;;35.59;41.07
22647;BME280;11490;42.726;23.268;2023-07-22T10:05:22;95137.84;;;35.54;41.64
22647;BME280;11490;42.726;23.268;2023-07-22T10:07:51;95141.78;;;35.77;40.24
22647;BME280;11490;42.726;23.268;2023-07-22T10:10:19;95144.06;;;35.93;39.95
22647;BME280;11490;42.726;23.268;2023-07-22T10:12:46;95149.56;;;36.21;37.32
22647;BME280;11490;42.726;23.268;2023-07-22T10:15:15;95160.63;;;36.25;38.69
22647;BME280;11490;42.726;23.268;2023-07-22T10:17:43;95143.31;;;35.93;36.41
22647;BME280;11490;42.726;23.268;2023-07-22T10:20:13;95140.00;;;36.26;36.24
22647;BME280;11490;42.726;23.268;2023-07-22T10:22:45;95131.13;;;36.52;37.03
22647;BME280;11490;42.726;23.268;2023-07-22T10:25:16;95150.09;;;36.64;36.43
22647;BME280;11490;42.726;23.268;2023-07-22T10:27:43;95152.38;;;36.84;37.97
22647;BME280;11490;42.726;23.268;2023-07-22T10:30:13;95115.88;;;36.78;37.43
22647;BME280;11490;42.726;23.268;2023-07-22T10:32:40;95161.94;;;36.83;37.75
22647;BME280;11490;42.726;23.268;2023-07-22T10:35:11;95148.25;;;37.06;37.11
22647;BME280;11490;42.726;23.268;2023-07-22T10:37:44;95133.09;;;37.11;35.30
22647;BME280;11490;42.726;23.268;2023-07-22T10:40:26;95126.28;;;37.19;34.68
22647;BME280;11490;42.726;23.268;2023-07-22T10:43:04;95132.47;;;36.89;33.98
22647;BME280;11490;42.726;23.268;2023-07-22T10:45:37;95134.41;;;36.95;35.40
22647;BME280;11490;42.726;23.268;2023-07-22T10:48:12;95135.78;;;37.25;35.15
22647;BME280;11490;42.726;23.268;2023-07-22T10:50:46;95134.00;;;37.45;33.86
22647;BME280;11490;42.726;23.268;2023-07-22T10:56:20;95133.63;;;37.43;33.24
22647;BME280;11490;42.726;23.268;2023-07-22T11:04:11;95123.63;;;37.87;32.84
22647;BME280;11490;42.726;23.268;2023-07-22T11:07:07;95137.94;;;37.89;33.79
22647;BME280;11490;42.726;23.268;2023-07-22T11:09:33;95115.09;;;37.70;32.60
22647;BME280;11490;42.726;23.268;2023-07-22T11:12:12;95133.47;;;37.61;32.49
22647;BME280;11490;42.726;23.268;2023-07-22T11:14:41;95111.69;;;37.49;32.81
22647;BME280;11490;42.726;23.268;2023-07-22T11:17:07;95100.16;;;37.50;32.62
22647;BME280;11490;42.726;23.268;2023-07-22T11:19:36;95119.31;;;37.45;33.30
22647;BME280;11490;42.726;23.268;2023-07-22T11:22:03;95113.75;;;37.41;33.70
22647;BME280;11490;42.726;23.268;2023-07-22T11:24:29;95106.81;;;37.19;33.99
22647;BME280;11490;42.726;23.268;2023-07-22T11:26:55;95111.03;;;36.89;33.37
22647;BME280;11490;42.726;23.268;2023-07-22T11:29:21;95130.00;;;36.43;34.76
22647;BME280;11490;42.726;23.268;2023-07-22T11:31:48;95097.16;;;36.23;35.74
22647;BME280;11490;42.726;23.268;2023-07-22T11:34:16;95095.84;;;36.46;35.60
22647;BME280;11490;42.726;23.268;2023-07-22T11:36:42;95094.53;;;36.68;36.52
22647;BME280;11490;42.726;23.268;2023-07-22T11:39:13;95112.88;;;36.48;36.27
22647;BME280;11490;42.726;23.268;2023-07-22T11:41:39;95094.81;;;36.15;36.54
22647;BME280;11490;42.726;23.268;2023-07-22T11:44:10;95094.09;;;35.93;38.97
22647;BME280;11490;42.726;23.268;2023-07-22T11:46:57;95099.72;;;35.72;38.33
22647;BME280;11490;42.726;23.268;2023-07-22T11:54:23;95091.41;;;35.72;38.14
22647;BME280;11490;42.726;23.268;2023-07-22T11:56:49;95092.22;;;35.55;39.37
22647;BME280;11490;42.726;23.268;2023-07-22T11:59:15;95073.69;;;34.95;38.59
22647;BME280;11490;42.726;23.268;2023-07-22T12:01:43;95099.00;;;35.18;39.43
22647;BME280;11490;42.726;23.268;2023-07-22T12:04:11;95088.72;;;35.36;39.10
22647;BME280;11490;42.726;23.268;2023-07-22T12:06:37;95090.69;;;35.18;40.63
22647;BME280;11490;42.726;23.268;2023-07-22T12:09:02;95070.88;;;35.41;37.62
22647;BME280;11490;42.726;23.268;2023-07-22T12:11:32;95067.25;;;35.58;37.72
22647;BME280;11490;42.726;23.268;2023-07-22T12:14:11;95070.78;;;35.76;38.50
22647;BME280;11490;42.726;23.268;2023-07-22T12:16:39;95053.34;;;35.69;38.37
22647;BME280;11490;42.726;23.268;2023-07-22T12:19:05;95067.19;;;35.83;41.08
22647;BME280;11490;42.726;23.268;2023-07-22T12:21:32;95064.72;;;35.99;37.50
22647;BME280;11490;42.726;23.268;2023-07-22T12:23:58;95064.78;;;35.92;37.88
22647;BME280;11490;42.726;23.268;2023-07-22T12:26:23;95060.41;;;35.87;36.65
22647;BME280;11490;42.726;23.268;2023-07-22T12:28:48;95041.00;;;35.84;37.09
22647;BME280;11490;42.726;23.268;2023-07-22T12:31:14;95058.38;;;35.95;36.74
22647;BME280;11490;42.726;23.268;2023-07-22T12:33:40;95046.38;;;36.19;37.98
22647;BME280;11490;42.726;23.268;2023-07-22T12:36:05;95051.88;;;36.30;36.33
22647;BME280;11490;42.726;23.268;2023-07-22T12:38:31;95051.22;;;36.05;37.61
22647;BME280;11490;42.726;23.268;2023-07-22T12:40:57;95048.88;;;35.96;38.67
22647;BME280;11490;42.726;23.268;2023-07-22T12:43:22;95031.09;;;35.83;36.49
22647;BME280;11490;42.726;23.268;2023-07-22T12:45:47;95023.56;;;35.80;35.40
22647;BME280;11490;42.726;23.268;2023-07-22T12:48:13;95033.72;;;36.11;38.09
22647;BME280;11490;42.726;23.268;2023-07-22T12:50:38;95033.00;;;36.00;37.61
22647;BME280;11490;42.726;23.268;2023-07-22T12:53:04;95023.53;;;35.91;36.71
22647;BME280;11490;42.726;23.268;2023-07-22T12:55:30;95047.16;;;36.16;36.24
22647;BME280;11490;42.726;23.268;2023-07-22T12:57:55;95044.81;;;36.11;35.38
22647;BME280;11490;42.726;23.268;2023-07-22T13:00:20;95019.38;;;36.16;35.85